Time;durP1;ratioP1;P1;durP2;ratioP2;P2;SDS_P1;SDS_P2;PMS_P1;PMS_P2;Temp;Humidity;BMP_temperature;BMP_pressure;BME280_temperature;BME280_humidity;BME280_pressure;Samples;Min_cycle;Max_cycle;Signal;HPM_P1;HPM_P2
2022/01/28 00:00:31;;;;;;;5.27;3.70;;;;;;;;;;5115667;28;20876;-70
2022/01/28 00:03:04;;;;;;;4.63;2.93;;;;;;;;;;5115515;28;20902;-70
2022/01/28 00:05:31;;;;;;;2.83;2.60;;;;;;;;;;5114437;28;20478;-70
2022/01/28 00:08:00;;;;;;;4.60;3.53;;;;;;;;;;5115273;28;20442;-69
2022/01/28 00:10:28;;;;;;;4.30;2.60;;;;;;;;;;5115340;27;20818;-70
2022/01/28 00:13:11;;;;;;;4.40;2.90;;;;;;;;;;5115264;28;21004;-70
2022/01/28 00:15:44;;;;;;;3.90;3.50;;;;;;;;;;5114883;28;20501;-70
2022/01/28 00:40:22;;;;;;;9.03;4.77;;;;;;;;;;5114766;28;20453;-69
2022/01/28 00:42:49;;;;;;;8.60;4.83;;;;;;;;;;5114613;28;20852;-70
2022/01/28 00:45:16;;;;;;;8.40;5.90;;;;;;;;;;5114396;28;20453;-70
2022/01/28 00:47:44;;;;;;;11.03;6.50;;;;;;;;;;5114294;28;20454;-70
2022/01/28 00:50:12;;;;;;;10.57;7.37;;;;;;;;;;5114789;28;20450;-70
2022/01/28 00:52:39;;;;;;;13.37;9.00;;;;;;;;;;5114642;28;20818;-70
2022/01/28 00:55:06;;;;;;;7.77;5.40;;;;;;;;;;5114211;28;20456;-70
2022/01/28 00:57:34;;;;;;;14.97;9.13;;;;;;;;;;5114412;28;20985;-70
2022/01/28 01:00:02;;;;;;;17.43;9.17;;;;;;;;;;5114480;28;20450;-70
2022/01/28 01:02:29;;;;;;;14.77;9.40;;;;;;;;;;5114317;28;20453;-70
2022/01/28 01:04:56;;;;;;;15.83;9.30;;;;;;;;;;5113598;28;20453;-70
2022/01/28 01:07:23;;;;;;;16.43;10.40;;;;;;;;;;5113878;28;20465;-70
2022/01/28 01:09:50;;;;;;;14.87;9.60;;;;;;;;;;5114116;28;20825;-70
2022/01/28 01:12:20;;;;;;;15.97;8.20;;;;;;;;;;5114045;28;20489;-70
2022/01/28 01:14:48;;;;;;;20.20;10.50;;;;;;;;;;5113745;28;20953;-70
2022/01/28 01:17:27;;;;;;;18.67;10.40;;;;;;;;;;5113942;28;20486;-70
2022/01/28 01:20:07;;;;;;;16.17;10.33;;;;;;;;;;5114029;28;20467;-70
2022/01/28 01:22:38;;;;;;;16.80;10.70;;;;;;;;;;5114028;28;20460;-70
2022/01/28 01:25:14;;;;;;;15.80;9.53;;;;;;;;;;5113813;28;20810;-70
2022/01/28 01:27:42;;;;;;;20.23;11.50;;;;;;;;;;5113891;27;20457;-70
2022/01/28 01:30:13;;;;;;;16.97;10.00;;;;;;;;;;5113872;28;20457;-70
2022/01/28 01:32:40;;;;;;;10.90;8.37;;;;;;;;;;5113985;28;20450;-70
2022/01/28 01:35:08;;;;;;;16.80;10.33;;;;;;;;;;5112940;28;20934;-70
2022/01/28 01:37:35;;;;;;;19.50;9.87;;;;;;;;;;5113657;28;21014;-70
2022/01/28 01:40:02;;;;;;;16.33;8.87;;;;;;;;;;5113770;28;20452;-70
2022/01/28 01:42:36;;;;;;;20.37;10.67;;;;;;;;;;5113726;28;20449;-70
2022/01/28 01:45:41;;;;;;;16.40;9.57;;;;;;;;;;5113528;28;20461;-70
2022/01/28 01:53:33;;;;;;;20.30;9.13;;;;;;;;;;5113240;28;20794;-70
2022/01/28 01:56:01;;;;;;;15.33;7.73;;;;;;;;;;5113309;28;20473;-70
2022/01/28 01:58:31;;;;;;;18.77;9.50;;;;;;;;;;5113575;28;20855;-70
2022/01/28 02:00:59;;;;;;;12.03;5.73;;;;;;;;;;5113714;28;20468;-70
2022/01/28 02:03:27;;;;;;;12.97;8.20;;;;;;;;;;5113545;28;20787;-70
2022/01/28 02:05:57;;;;;;;14.30;8.83;;;;;;;;;;5113168;28;20476;-70
2022/01/28 02:08:24;;;;;;;17.80;7.50;;;;;;;;;;5113337;28;20496;-70
2022/01/28 02:10:56;;;;;;;13.47;9.20;;;;;;;;;;5113386;28;20457;-70
2022/01/28 02:13:23;;;;;;;13.13;7.20;;;;;;;;;;5113400;28;20946;-70
2022/01/28 02:15:50;;;;;;;7.33;5.20;;;;;;;;;;5112922;28;20485;-70
2022/01/28 02:18:17;;;;;;;11.10;7.80;;;;;;;;;;5113476;28;20489;-70
2022/01/28 02:20:49;;;;;;;13.10;7.67;;;;;;;;;;5113271;28;20441;-70
2022/01/28 02:23:16;;;;;;;12.43;8.47;;;;;;;;;;5113284;28;20498;-70
2022/01/28 02:25:44;;;;;;;9.70;6.60;;;;;;;;;;5112860;28;20974;-70
2022/01/28 02:28:14;;;;;;;10.13;6.93;;;;;;;;;;5113328;28;20788;-70
2022/01/28 02:30:41;;;;;;;8.80;6.50;;;;;;;;;;5113435;28;20897;-70
2022/01/28 02:33:13;;;;;;;10.47;6.23;;;;;;;;;;5113306;28;20445;-70
2022/01/28 02:35:42;;;;;;;10.80;6.70;;;;;;;;;;5112827;28;20983;-70
2022/01/28 02:38:12;;;;;;;8.00;5.97;;;;;;;;;;5113085;28;20481;-70
2022/01/28 02:40:41;;;;;;;13.10;7.47;;;;;;;;;;5113078;28;20446;-70
2022/01/28 02:43:25;;;;;;;8.33;5.50;;;;;;;;;;5113150;28;20481;-70
2022/01/28 02:45:55;;;;;;;12.30;6.77;;;;;;;;;;5112840;28;20482;-70
2022/01/28 02:48:25;;;;;;;6.60;4.13;;;;;;;;;;5116524;28;20465;-70
2022/01/28 02:51:02;;;;;;;11.47;7.73;;;;;;;;;;5117037;28;20489;-69
2022/01/28 02:53:40;;;;;;;9.00;5.93;;;;;;;;;;5116647;28;20879;-70
2022/01/28 02:56:14;;;;;;;8.10;5.63;;;;;;;;;;5116780;28;20473;-70
2022/01/28 02:58:41;;;;;;;9.50;6.97;;;;;;;;;;5116750;27;21060;-69
2022/01/28 03:01:09;;;;;;;7.07;4.80;;;;;;;;;;5116864;28;20460;-70
2022/01/28 03:03:36;;;;;;;15.00;6.90;;;;;;;;;;5116425;28;20445;-70
2022/01/28 03:06:03;;;;;;;13.27;9.30;;;;;;;;;;5116027;28;20473;-70
2022/01/28 03:08:31;;;;;;;8.60;5.70;;;;;;;;;;5116716;28;20452;-70
2022/01/28 03:14:02;;;;;;;15.37;7.17;;;;;;;;;;5100132;28;20433;-70
2022/01/28 03:16:32;;;;;;;16.33;8.90;;;;;;;;;;5116517;27;20484;-70
2022/01/28 03:19:02;;;;;;;10.00;7.20;;;;;;;;;;5116499;28;20884;-69
2022/01/28 03:21:43;;;;;;;11.80;7.97;;;;;;;;;;5116603;28;20864;-69
2022/01/28 03:24:13;;;;;;;11.60;7.30;;;;;;;;;;5116060;28;20584;-70
2022/01/28 03:26:40;;;;;;;12.97;7.77;;;;;;;;;;5116255;27;20896;-69
2022/01/28 03:29:07;;;;;;;11.60;7.67;;;;;;;;;;5116268;27;20442;-70
2022/01/28 03:31:37;;;;;;;9.90;7.40;;;;;;;;;;5115935;27;20446;-69
2022/01/28 03:34:04;;;;;;;10.57;6.90;;;;;;;;;;5115837;28;20544;-69
2022/01/28 03:36:31;;;;;;;12.60;6.77;;;;;;;;;;5115738;28;20474;-69
2022/01/28 03:38:58;;;;;;;11.23;7.43;;;;;;;;;;5116016;28;20998;-69
2022/01/28 03:41:27;;;;;;;10.87;7.03;;;;;;;;;;5116047;28;20453;-69
2022/01/28 03:43:58;;;;;;;11.37;7.00;;;;;;;;;;5115854;28;20473;-70
2022/01/28 03:46:26;;;;;;;14.07;7.80;;;;;;;;;;5115622;28;20519;-69
2022/01/28 03:48:53;;;;;;;10.63;6.57;;;;;;;;;;5115920;28;21236;-69
2022/01/28 03:51:21;;;;;;;12.83;8.30;;;;;;;;;;5115791;28;20465;-70
2022/01/28 03:53:48;;;;;;;10.67;5.73;;;;;;;;;;5115473;28;20942;-70
2022/01/28 03:56:15;;;;;;;7.67;5.00;;;;;;;;;;5115614;28;20466;-70
2022/01/28 03:58:44;;;;;;;11.43;7.53;;;;;;;;;;5114969;28;20481;-69
2022/01/28 04:01:16;;;;;;;12.03;5.70;;;;;;;;;;5115511;28;20456;-70
2022/01/28 04:03:50;;;;;;;14.03;7.83;;;;;;;;;;5115312;28;20464;-70
2022/01/28 04:11:52;;;;;;;7.70;5.40;;;;;;;;;;5115346;28;20506;-70
2022/01/28 04:14:36;;;;;;;7.50;5.47;;;;;;;;;;5115065;28;20450;-70
2022/01/28 04:17:22;;;;;;;10.33;5.90;;;;;;;;;;5115140;28;20469;-70
2022/01/28 04:19:52;;;;;;;9.03;6.50;;;;;;;;;;5115225;28;20977;-69
2022/01/28 04:22:19;;;;;;;11.70;6.83;;;;;;;;;;5115174;28;20825;-70
2022/01/28 04:24:47;;;;;;;8.90;5.70;;;;;;;;;;5114829;28;20962;-69
2022/01/28 04:27:14;;;;;;;9.17;5.70;;;;;;;;;;5115024;28;20465;-70
2022/01/28 04:29:42;;;;;;;5.67;4.50;;;;;;;;;;5114967;28;20438;-69
2022/01/28 04:32:10;;;;;;;7.90;6.03;;;;;;;;;;5115115;28;21005;-69
2022/01/28 04:34:37;;;;;;;4.67;2.87;;;;;;;;;;5114686;28;20456;-69
2022/01/28 04:37:14;;;;;;;8.50;5.70;;;;;;;;;;5114818;28;20470;-70
2022/01/28 04:39:47;;;;;;;4.90;3.53;;;;;;;;;;5114880;28;20985;-70
2022/01/28 04:42:26;;;;;;;6.77;4.53;;;;;;;;;;5114707;28;20454;-70
2022/01/28 04:45:02;;;;;;;8.67;4.83;;;;;;;;;;5114461;28;20450;-70
2022/01/28 04:47:36;;;;;;;6.20;4.57;;;;;;;;;;5114426;28;20491;-70
2022/01/28 04:50:11;;;;;;;8.73;4.93;;;;;;;;;;5114585;28;20457;-70
2022/01/28 04:55:44;;;;;;;5.87;4.33;;;;;;;;;;5098110;28;20454;-70
2022/01/28 04:58:24;;;;;;;6.90;5.27;;;;;;;;;;5114484;28;20576;-70
2022/01/28 05:01:05;;;;;;;8.83;5.10;;;;;;;;;;5114371;28;20453;-70
2022/01/28 05:03:52;;;;;;;12.43;5.17;;;;;;;;;;5114388;28;20450;-70
2022/01/28 05:09:29;;;;;;;8.73;6.10;;;;;;;;;;5113884;28;20468;-70
2022/01/28 05:25:47;;;;;;;10.90;6.03;;;;;;;;;;5113633;28;20441;-70
2022/01/28 05:28:18;;;;;;;9.00;5.73;;;;;;;;;;5114020;28;20445;-70
2022/01/28 05:30:45;;;;;;;8.30;5.27;;;;;;;;;;5113805;28;20464;-69
2022/01/28 05:33:13;;;;;;;9.73;5.87;;;;;;;;;;5113931;28;20954;-70
2022/01/28 05:35:40;;;;;;;11.97;6.00;;;;;;;;;;5113506;28;20496;-70
2022/01/28 05:38:07;;;;;;;13.10;7.30;;;;;;;;;;5113761;28;20485;-69
2022/01/28 05:40:34;;;;;;;8.40;6.07;;;;;;;;;;5113731;28;20450;-70
2022/01/28 05:43:01;;;;;;;9.77;6.60;;;;;;;;;;5113596;28;20445;-70
2022/01/28 05:45:29;;;;;;;9.30;5.80;;;;;;;;;;5113197;28;20478;-69
2022/01/28 05:47:57;;;;;;;9.60;6.27;;;;;;;;;;5113590;28;20461;-69
2022/01/28 05:50:26;;;;;;;10.20;6.87;;;;;;;;;;5113583;28;20493;-69
2022/01/28 05:52:53;;;;;;;13.40;7.67;;;;;;;;;;5113481;28;20462;-69
2022/01/28 05:55:20;;;;;;;12.93;7.50;;;;;;;;;;5113255;28;20453;-70
2022/01/28 05:57:47;;;;;;;12.27;7.10;;;;;;;;;;5113326;28;20476;-70
2022/01/28 06:00:17;;;;;;;11.43;6.07;;;;;;;;;;5113597;28;20456;-70
2022/01/28 06:02:44;;;;;;;15.30;7.20;;;;;;;;;;5113498;28;20466;-70
2022/01/28 06:05:11;;;;;;;11.37;6.70;;;;;;;;;;5112798;28;20534;-70
2022/01/28 06:07:42;;;;;;;8.37;4.30;;;;;;;;;;5113415;28;20540;-70
2022/01/28 06:10:09;;;;;;;10.40;5.77;;;;;;;;;;5113497;28;20884;-69
2022/01/28 06:12:40;;;;;;;9.00;5.57;;;;;;;;;;5113318;28;20445;-70
2022/01/28 06:15:07;;;;;;;10.57;6.43;;;;;;;;;;5113234;28;21027;-70
2022/01/28 06:17:34;;;;;;;14.00;5.13;;;;;;;;;;5113311;28;20938;-70
2022/01/28 06:20:03;;;;;;;6.97;4.93;;;;;;;;;;5113530;28;20485;-70
2022/01/28 06:22:30;;;;;;;10.50;4.90;;;;;;;;;;5117404;28;20445;-70
2022/01/28 06:24:58;;;;;;;9.17;5.13;;;;;;;;;;5117186;28;20453;-70
2022/01/28 06:27:26;;;;;;;5.60;3.70;;;;;;;;;;5117505;28;20472;-69
2022/01/28 06:29:53;;;;;;;12.80;4.93;;;;;;;;;;5117347;27;20452;-70
2022/01/28 06:32:20;;;;;;;9.40;6.00;;;;;;;;;;5117352;28;20953;-70
2022/01/28 06:34:47;;;;;;;9.03;4.77;;;;;;;;;;5116935;28;20817;-70
2022/01/28 06:37:14;;;;;;;7.20;4.70;;;;;;;;;;5117332;28;20469;-70
2022/01/28 06:39:41;;;;;;;10.27;5.60;;;;;;;;;;5117239;28;20520;-70
2022/01/28 06:42:10;;;;;;;18.40;6.83;;;;;;;;;;5117303;28;20964;-70
2022/01/28 06:44:37;;;;;;;9.47;5.60;;;;;;;;;;5116872;28;20453;-71
2022/01/28 06:47:04;;;;;;;6.30;4.50;;;;;;;;;;5116875;28;20488;-70
2022/01/28 06:49:32;;;;;;;12.27;6.53;;;;;;;;;;5116973;28;20445;-70
2022/01/28 06:51:59;;;;;;;11.83;6.43;;;;;;;;;;5116979;27;20456;-70
2022/01/28 06:54:26;;;;;;;11.27;6.40;;;;;;;;;;5116801;28;20449;-70
2022/01/28 06:56:53;;;;;;;16.57;5.13;;;;;;;;;;5116914;28;20562;-70
2022/01/28 06:59:21;;;;;;;12.47;6.70;;;;;;;;;;5116775;27;20485;-70
2022/01/28 07:01:49;;;;;;;9.70;6.50;;;;;;;;;;5116726;28;20825;-70
2022/01/28 07:04:16;;;;;;;8.60;5.40;;;;;;;;;;5116448;28;20457;-70
2022/01/28 07:06:44;;;;;;;15.27;5.70;;;;;;;;;;5116556;28;20472;-70
2022/01/28 07:09:11;;;;;;;8.33;5.20;;;;;;;;;;5116826;28;20811;-70
2022/01/28 07:11:38;;;;;;;7.87;6.60;;;;;;;;;;5116532;27;20456;-70
2022/01/28 07:14:05;;;;;;;9.00;6.00;;;;;;;;;;5116341;28;20454;-70
2022/01/28 07:16:35;;;;;;;10.63;6.03;;;;;;;;;;5116902;28;20473;-70
2022/01/28 07:19:02;;;;;;;8.43;5.43;;;;;;;;;;5116383;28;20484;-70
2022/01/28 07:21:29;;;;;;;12.43;6.07;;;;;;;;;;5116422;28;20450;-70
2022/01/28 07:23:56;;;;;;;11.67;6.37;;;;;;;;;;5116260;28;20485;-70
2022/01/28 07:26:23;;;;;;;3.97;3.57;;;;;;;;;;5116261;28;20544;-70
2022/01/28 07:28:52;;;;;;;7.80;5.10;;;;;;;;;;5116196;28;20453;-70
2022/01/28 07:31:19;;;;;;;9.00;5.20;;;;;;;;;;5115730;28;20480;-70
2022/01/28 07:33:48;;;;;;;7.43;5.40;;;;;;;;;;5115150;28;20438;-70
2022/01/28 07:36:15;;;;;;;6.47;4.90;;;;;;;;;;5115986;28;20466;-70
2022/01/28 07:38:42;;;;;;;8.20;4.90;;;;;;;;;;5115974;27;20477;-70
2022/01/28 07:41:09;;;;;;;7.03;4.73;;;;;;;;;;5116164;28;20453;-70
2022/01/28 07:43:39;;;;;;;7.00;5.67;;;;;;;;;;5115989;27;20454;-70
2022/01/28 07:46:06;;;;;;;9.33;4.80;;;;;;;;;;5115412;28;20828;-71
2022/01/28 07:48:33;;;;;;;8.00;4.50;;;;;;;;;;5115711;28;20469;-70
2022/01/28 07:51:02;;;;;;;6.60;5.60;;;;;;;;;;5116024;28;20453;-70
2022/01/28 07:53:29;;;;;;;7.17;4.40;;;;;;;;;;5115581;28;20460;-70
2022/01/28 07:55:56;;;;;;;6.27;4.17;;;;;;;;;;5115662;28;20990;-70
2022/01/28 07:58:23;;;;;;;9.13;4.70;;;;;;;;;;5115655;28;20448;-70
2022/01/28 08:00:50;;;;;;;8.50;5.80;;;;;;;;;;5115697;28;20453;-70
2022/01/28 08:03:17;;;;;;;13.23;6.40;;;;;;;;;;5115573;28;20445;-70
2022/01/28 08:05:44;;;;;;;6.23;4.50;;;;;;;;;;5114626;28;20469;-70
2022/01/28 08:08:18;;;;;;;9.60;5.33;;;;;;;;;;5115583;28;20457;-70
2022/01/28 08:10:46;;;;;;;6.60;4.23;;;;;;;;;;5115343;28;20472;-70
2022/01/28 08:13:13;;;;;;;10.73;5.07;;;;;;;;;;5115367;28;20446;-70
2022/01/28 08:15:40;;;;;;;9.00;3.80;;;;;;;;;;5115011;28;20998;-70
2022/01/28 08:18:08;;;;;;;6.90;5.73;;;;;;;;;;5115285;28;20457;-70
2022/01/28 08:20:35;;;;;;;10.27;4.10;;;;;;;;;;5115492;28;20489;-70
2022/01/28 08:23:03;;;;;;;9.00;4.63;;;;;;;;;;5115389;28;20457;-70
2022/01/28 08:25:33;;;;;;;6.03;4.80;;;;;;;;;;5114896;28;20880;-70
2022/01/28 08:28:00;;;;;;;9.67;5.50;;;;;;;;;;5115030;28;20457;-70
2022/01/28 08:30:28;;;;;;;9.50;5.83;;;;;;;;;;5115264;27;20461;-70
2022/01/28 08:32:56;;;;;;;7.67;5.33;;;;;;;;;;5115139;28;20453;-70
2022/01/28 08:35:29;;;;;;;6.40;4.53;;;;;;;;;;5114784;28;20962;-70
2022/01/28 08:37:57;;;;;;;13.17;5.50;;;;;;;;;;5115048;28;20450;-70
2022/01/28 08:40:25;;;;;;;8.93;4.07;;;;;;;;;;5114734;28;21065;-70
2022/01/28 08:42:54;;;;;;;5.93;5.03;;;;;;;;;;5114716;28;20456;-70
2022/01/28 08:45:21;;;;;;;8.07;4.77;;;;;;;;;;5114604;28;20446;-70
2022/01/28 08:47:48;;;;;;;10.73;4.67;;;;;;;;;;5114532;28;20469;-70
2022/01/28 08:50:15;;;;;;;6.43;4.57;;;;;;;;;;5114665;28;20449;-71
2022/01/28 08:52:46;;;;;;;6.17;4.00;;;;;;;;;;5114528;28;20449;-70
2022/01/28 08:55:14;;;;;;;8.40;5.47;;;;;;;;;;5114293;28;20454;-70
2022/01/28 08:57:43;;;;;;;11.80;4.80;;;;;;;;;;5114576;28;20454;-70
2022/01/28 09:00:12;;;;;;;6.50;4.40;;;;;;;;;;5114478;28;21013;-70
2022/01/28 09:02:39;;;;;;;6.93;4.77;;;;;;;;;;5114397;28;20934;-70
2022/01/28 09:05:07;;;;;;;6.53;4.53;;;;;;;;;;5113794;28;20461;-70
2022/01/28 09:07:34;;;;;;;7.80;4.87;;;;;;;;;;5114109;28;20450;-70
2022/01/28 09:10:06;;;;;;;11.33;5.10;;;;;;;;;;5114299;28;20451;-70
2022/01/28 09:12:39;;;;;;;7.43;4.13;;;;;;;;;;5114559;28;20469;-70
2022/01/28 09:15:07;;;;;;;6.20;3.90;;;;;;;;;;5114208;28;20448;-71
2022/01/28 09:17:36;;;;;;;8.87;4.60;;;;;;;;;;5114280;28;20454;-71
2022/01/28 09:20:03;;;;;;;4.40;3.60;;;;;;;;;;5114097;28;20871;-70
2022/01/28 09:22:30;;;;;;;3.27;2.73;;;;;;;;;;5114206;28;20442;-70
2022/01/28 09:24:57;;;;;;;4.23;3.83;;;;;;;;;;5113811;28;20450;-70
2022/01/28 09:27:24;;;;;;;6.60;3.33;;;;;;;;;;5105908;28;20481;-70
2022/01/28 09:29:51;;;;;;;7.67;5.10;;;;;;;;;;5092056;28;20451;-70
2022/01/28 09:32:19;;;;;;;6.37;4.57;;;;;;;;;;5103772;28;20457;-70
2022/01/28 09:34:47;;;;;;;7.83;4.03;;;;;;;;;;5112952;28;20465;-72
2022/01/28 09:37:14;;;;;;;8.70;4.30;;;;;;;;;;5112361;28;20541;-72
2022/01/28 09:39:44;;;;;;;7.50;4.50;;;;;;;;;;5111822;28;20566;-70
2022/01/28 09:42:14;;;;;;;6.50;4.73;;;;;;;;;;5111710;28;20450;-70
2022/01/28 09:44:42;;;;;;;8.20;4.47;;;;;;;;;;5111439;28;20518;-70
2022/01/28 09:47:10;;;;;;;4.70;4.07;;;;;;;;;;5111524;28;20482;-70
2022/01/28 09:49:39;;;;;;;7.67;4.83;;;;;;;;;;5111707;28;20458;-71
2022/01/28 09:52:09;;;;;;;6.47;4.50;;;;;;;;;;5111855;28;20540;-71
2022/01/28 09:54:36;;;;;;;13.37;5.70;;;;;;;;;;5111454;28;20816;-71
2022/01/28 09:57:03;;;;;;;5.90;4.43;;;;;;;;;;5111452;28;20590;-71
2022/01/28 09:59:30;;;;;;;8.90;3.80;;;;;;;;;;5091629;28;20483;-71
2022/01/28 10:01:57;;;;;;;10.70;5.23;;;;;;;;;;5091635;28;20449;-70
2022/01/28 10:04:24;;;;;;;8.63;4.60;;;;;;;;;;5091307;28;20454;-71
2022/01/28 10:06:54;;;;;;;10.33;5.30;;;;;;;;;;5091965;28;20470;-71
2022/01/28 10:09:24;;;;;;;13.03;4.77;;;;;;;;;;5091704;28;20451;-71
2022/01/28 10:11:54;;;;;;;12.73;5.67;;;;;;;;;;5091604;28;20809;-71
2022/01/28 10:14:24;;;;;;;10.03;4.67;;;;;;;;;;5091527;28;20462;-71
2022/01/28 10:16:58;;;;;;;10.13;5.23;;;;;;;;;;5091810;28;20479;-71
2022/01/28 10:19:26;;;;;;;7.17;4.50;;;;;;;;;;5091575;28;20505;-71
2022/01/28 10:21:54;;;;;;;6.23;4.30;;;;;;;;;;5091364;28;20458;-71
2022/01/28 10:24:23;;;;;;;9.23;4.93;;;;;;;;;;5091520;28;20454;-71
2022/01/28 10:26:52;;;;;;;8.93;5.37;;;;;;;;;;5091420;28;20475;-71
2022/01/28 10:29:20;;;;;;;9.57;5.37;;;;;;;;;;5102003;28;20460;-71
2022/01/28 10:31:49;;;;;;;10.00;5.00;;;;;;;;;;5111852;28;20464;-71
2022/01/28 10:34:17;;;;;;;8.73;5.20;;;;;;;;;;5111608;28;20477;-70
2022/01/28 10:36:46;;;;;;;7.10;4.67;;;;;;;;;;5111555;28;21004;-71
2022/01/28 10:39:17;;;;;;;8.00;5.00;;;;;;;;;;5111935;28;20950;-71
2022/01/28 10:41:56;;;;;;;7.90;4.50;;;;;;;;;;5111440;28;20461;-71
2022/01/28 10:44:24;;;;;;;4.53;3.90;;;;;;;;;;5111580;28;20449;-71
2022/01/28 10:46:53;;;;;;;11.17;5.27;;;;;;;;;;5111333;28;20477;-71
2022/01/28 10:49:20;;;;;;;6.53;4.13;;;;;;;;;;5111654;28;20453;-71
2022/01/28 10:51:49;;;;;;;6.33;4.50;;;;;;;;;;5111485;28;20454;-70
2022/01/28 10:54:16;;;;;;;5.07;3.47;;;;;;;;;;5111569;28;20456;-71
2022/01/28 10:56:47;;;;;;;9.43;5.10;;;;;;;;;;5111299;28;20470;-70
2022/01/28 10:59:17;;;;;;;5.50;3.67;;;;;;;;;;5111625;28;20495;-70
2022/01/28 11:01:45;;;;;;;9.63;4.57;;;;;;;;;;5111331;28;20449;-71
2022/01/28 11:04:12;;;;;;;11.77;6.43;;;;;;;;;;5111129;28;20452;-71
2022/01/28 11:06:40;;;;;;;15.40;5.13;;;;;;;;;;5111392;28;20465;-71
2022/01/28 11:09:08;;;;;;;7.60;4.10;;;;;;;;;;5114730;28;20484;-71
2022/01/28 11:11:35;;;;;;;8.30;3.87;;;;;;;;;;5114942;27;20810;-71
2022/01/28 11:14:03;;;;;;;7.10;5.03;;;;;;;;;;5114915;28;20453;-71
2022/01/28 11:16:32;;;;;;;8.93;3.63;;;;;;;;;;5115133;27;20469;-71
2022/01/28 11:18:59;;;;;;;5.70;3.50;;;;;;;;;;5115066;28;20445;-71
2022/01/28 11:21:32;;;;;;;6.73;3.90;;;;;;;;;;5114873;28;20583;-71
2022/01/28 11:24:06;;;;;;;5.77;4.47;;;;;;;;;;5114828;28;20446;-71
2022/01/28 11:26:39;;;;;;;7.23;3.20;;;;;;;;;;5114801;28;20479;-71
2022/01/28 11:29:13;;;;;;;7.40;4.63;;;;;;;;;;5114981;27;20453;-71
2022/01/28 11:31:45;;;;;;;8.50;3.73;;;;;;;;;;5114625;28;20446;-71
2022/01/28 11:34:16;;;;;;;7.23;3.70;;;;;;;;;;5114450;28;20460;-71
2022/01/28 11:36:44;;;;;;;8.10;4.30;;;;;;;;;;5114547;28;20473;-71
2022/01/28 11:39:21;;;;;;;5.70;3.53;;;;;;;;;;5114742;28;20446;-71
2022/01/28 11:42:00;;;;;;;4.33;2.30;;;;;;;;;;5114646;28;20488;-71
2022/01/28 11:44:47;;;;;;;5.20;3.93;;;;;;;;;;5114912;27;20813;-71
2022/01/28 11:47:23;;;;;;;4.90;3.23;;;;;;;;;;5114294;28;20493;-71
2022/01/28 11:49:57;;;;;;;4.37;3.00;;;;;;;;;;5114287;28;20902;-71
2022/01/28 11:52:25;;;;;;;5.60;2.83;;;;;;;;;;5114580;28;20456;-71
2022/01/28 11:54:53;;;;;;;7.33;3.63;;;;;;;;;;5114121;28;20457;-71
2022/01/28 11:57:23;;;;;;;4.83;2.10;;;;;;;;;;5114397;28;20530;-71
2022/01/28 11:59:50;;;;;;;6.53;2.70;;;;;;;;;;5114093;28;20453;-71
2022/01/28 12:02:18;;;;;;;4.00;2.83;;;;;;;;;;5114114;27;20453;-71
2022/01/28 12:04:47;;;;;;;8.50;3.63;;;;;;;;;;5113819;28;20446;-71
2022/01/28 12:07:17;;;;;;;4.90;3.30;;;;;;;;;;5114080;28;20469;-70
2022/01/28 12:09:46;;;;;;;4.43;2.60;;;;;;;;;;5113693;28;20973;-70
2022/01/28 12:12:14;;;;;;;4.60;2.47;;;;;;;;;;5114080;28;20473;-71
2022/01/28 12:14:56;;;;;;;9.00;3.07;;;;;;;;;;5114638;28;20457;-70
2022/01/28 12:17:37;;;;;;;5.17;2.90;;;;;;;;;;5115073;28;20568;-70
2022/01/28 12:20:23;;;;;;;6.40;2.23;;;;;;;;;;5115122;28;20488;-70
2022/01/28 12:23:04;;;;;;;16.40;6.90;;;;;;;;;;5115486;28;20453;-70
2022/01/28 12:25:50;;;;;;;9.23;5.23;;;;;;;;;;5114908;27;20470;-70
2022/01/28 12:28:18;;;;;;;14.53;5.83;;;;;;;;;;5115205;28;20819;-70
2022/01/28 12:30:46;;;;;;;8.30;4.40;;;;;;;;;;5115327;28;20453;-70
2022/01/28 12:33:13;;;;;;;11.93;2.53;;;;;;;;;;5115050;28;20496;-70
2022/01/28 12:35:43;;;;;;;5.90;2.40;;;;;;;;;;5114534;28;20481;-71
2022/01/28 12:38:13;;;;;;;5.20;3.13;;;;;;;;;;5114853;28;20450;-70
2022/01/28 12:40:47;;;;;;;5.50;2.30;;;;;;;;;;5114950;28;20493;-70
2022/01/28 12:43:18;;;;;;;2.57;2.00;;;;;;;;;;5114990;28;20448;-70
2022/01/28 12:45:47;;;;;;;7.70;2.43;;;;;;;;;;5114433;28;20501;-70
2022/01/28 12:48:21;;;;;;;7.73;2.13;;;;;;;;;;5114623;28;20470;-70
2022/01/28 12:50:51;;;;;;;8.30;3.50;;;;;;;;;;5114710;28;20796;-70
2022/01/28 12:53:29;;;;;;;10.20;5.10;;;;;;;;;;5114989;28;20444;-70
2022/01/28 12:55:56;;;;;;;2.83;2.40;;;;;;;;;;5114408;28;20465;-70
2022/01/28 12:58:31;;;;;;;3.27;2.50;;;;;;;;;;5114374;27;20456;-70
2022/01/28 13:01:04;;;;;;;6.13;2.97;;;;;;;;;;5114623;28;20953;-70
2022/01/28 13:03:36;;;;;;;9.43;4.17;;;;;;;;;;5114287;28;20460;-70
2022/01/28 13:08:57;;;;;;;7.90;3.37;;;;;;;;;;5111034;27;20533;-70
2022/01/28 13:11:25;;;;;;;4.77;2.93;;;;;;;;;;5110872;28;20442;-70
2022/01/28 13:13:53;;;;;;;11.83;2.93;;;;;;;;;;5110623;28;20458;-70
2022/01/28 13:16:30;;;;;;;5.03;3.70;;;;;;;;;;5110698;28;20492;-70
2022/01/28 13:18:57;;;;;;;4.33;3.00;;;;;;;;;;5110730;28;20507;-70
2022/01/28 13:21:25;;;;;;;5.40;2.63;;;;;;;;;;5110778;28;20951;-70
2022/01/28 13:24:06;;;;;;;8.50;3.00;;;;;;;;;;5110561;28;20453;-70
2022/01/28 13:26:33;;;;;;;5.43;2.90;;;;;;;;;;5110473;28;20470;-70
2022/01/28 13:29:10;;;;;;;5.60;3.30;;;;;;;;;;5110909;28;20462;-70
2022/01/28 13:31:38;;;;;;;3.77;2.50;;;;;;;;;;5110363;28;20449;-70
2022/01/28 13:34:07;;;;;;;4.43;3.80;;;;;;;;;;5110424;28;20935;-70
2022/01/28 13:36:44;;;;;;;4.10;3.43;;;;;;;;;;5110222;28;20841;-70
2022/01/28 13:39:17;;;;;;;6.70;2.97;;;;;;;;;;5110456;28;20446;-70
2022/01/28 13:41:46;;;;;;;4.27;2.50;;;;;;;;;;5110325;28;20525;-70
2022/01/28 13:44:23;;;;;;;3.77;2.73;;;;;;;;;;5109629;28;20453;-70
2022/01/28 13:46:56;;;;;;;3.77;2.60;;;;;;;;;;5109955;28;20470;-70
2022/01/28 13:49:28;;;;;;;7.53;2.70;;;;;;;;;;5110250;28;20957;-70
2022/01/28 13:51:55;;;;;;;3.57;2.57;;;;;;;;;;5107883;28;20993;-70
2022/01/28 13:54:33;;;;;;;3.40;2.53;;;;;;;;;;5108472;28;20453;-70
2022/01/28 13:57:01;;;;;;;7.33;2.77;;;;;;;;;;5108719;28;20501;-71
2022/01/28 13:59:30;;;;;;;6.83;3.97;;;;;;;;;;5108228;28;20500;-70
2022/01/28 14:01:59;;;;;;;6.70;2.50;;;;;;;;;;5108427;28;20473;-70
2022/01/28 14:04:27;;;;;;;3.53;2.30;;;;;;;;;;5107884;28;20489;-71
2022/01/28 14:07:09;;;;;;;7.73;2.47;;;;;;;;;;5108081;28;20482;-70
2022/01/28 14:09:44;;;;;;;7.73;2.70;;;;;;;;;;5108459;28;20453;-71
2022/01/28 14:12:13;;;;;;;5.40;2.00;;;;;;;;;;5108335;28;20969;-70
2022/01/28 14:14:46;;;;;;;2.53;1.80;;;;;;;;;;5107856;28;20453;-70
2022/01/28 14:17:14;;;;;;;4.70;3.10;;;;;;;;;;5108203;28;21027;-70
2022/01/28 14:19:43;;;;;;;5.20;2.60;;;;;;;;;;5097792;28;20978;-70
2022/01/28 14:22:13;;;;;;;3.20;2.40;;;;;;;;;;5094368;28;20461;-70
2022/01/28 14:24:40;;;;;;;4.80;2.40;;;;;;;;;;5094199;28;20467;-70
2022/01/28 14:27:45;;;;;;;3.70;2.43;;;;;;;;;;5094271;28;20466;-70
2022/01/28 14:30:04;;;;;;;8.93;2.27;;;;;;;;;;5093881;28;20542;-70
2022/01/28 14:32:31;;;;;;;5.10;2.30;;;;;;;;;;5094276;28;20490;-70
2022/01/28 14:34:58;;;;;;;2.20;1.73;;;;;;;;;;5094262;28;20909;-71
2022/01/28 14:37:27;;;;;;;4.27;2.67;;;;;;;;;;5094352;28;20463;-70
2022/01/28 14:39:55;;;;;;;2.27;1.83;;;;;;;;;;5094177;28;20940;-70
2022/01/28 14:42:23;;;;;;;5.93;2.37;;;;;;;;;;5094184;28;20943;-71
2022/01/28 14:44:51;;;;;;;6.00;2.10;;;;;;;;;;5088911;28;20454;-70
2022/01/28 14:47:18;;;;;;;4.47;2.30;;;;;;;;;;5093913;28;20766;-70
2022/01/28 14:49:46;;;;;;;6.03;2.53;;;;;;;;;;5093604;28;20968;-70
2022/01/28 14:52:19;;;;;;;9.73;3.13;;;;;;;;;;5093595;28;20486;-70
2022/01/28 14:54:46;;;;;;;9.33;2.67;;;;;;;;;;5092961;28;20457;-70
2022/01/28 14:57:13;;;;;;;15.20;2.57;;;;;;;;;;5093261;28;20478;-71
2022/01/28 14:59:43;;;;;;;7.50;3.93;;;;;;;;;;5093107;28;20455;-71
2022/01/28 15:02:11;;;;;;;13.60;8.37;;;;;;;;;;5093811;28;20481;-71
2022/01/28 15:04:38;;;;;;;5.40;3.73;;;;;;;;;;5093205;28;20661;-71
2022/01/28 15:07:05;;;;;;;18.60;8.50;;;;;;;;;;5093591;28;20486;-71
2022/01/28 15:09:39;;;;;;;26.77;11.47;;;;;;;;;;5093367;28;20450;-71
2022/01/28 15:12:06;;;;;;;8.03;4.87;;;;;;;;;;5093658;28;20554;-71
2022/01/28 15:14:33;;;;;;;44.17;21.33;;;;;;;;;;5092970;28;20450;-70
2022/01/28 15:17:02;;;;;;;20.80;9.23;;;;;;;;;;5093438;28;20477;-70
2022/01/28 15:19:29;;;;;;;32.30;15.00;;;;;;;;;;5093518;28;20910;-70
2022/01/28 15:21:56;;;;;;;20.57;8.37;;;;;;;;;;5091836;28;20489;-71
2022/01/28 15:24:24;;;;;;;21.07;8.83;;;;;;;;;;5093373;28;20450;-70
2022/01/28 15:26:52;;;;;;;15.70;8.47;;;;;;;;;;5093016;28;20474;-71
2022/01/28 15:29:47;;;;;;;18.50;8.03;;;;;;;;;;5093188;28;20490;-70
2022/01/28 15:37:59;;;;;;;4.10;3.33;;;;;;;;;;5093040;28;20430;-70
2022/01/28 15:40:26;;;;;;;10.03;4.00;;;;;;;;;;5092998;28;20451;-70
2022/01/28 15:43:00;;;;;;;5.93;3.57;;;;;;;;;;5093120;28;20454;-71
2022/01/28 15:45:29;;;;;;;9.40;4.40;;;;;;;;;;5092768;28;20498;-71
2022/01/28 15:47:57;;;;;;;5.03;2.50;;;;;;;;;;5092643;28;20548;-70
2022/01/28 15:50:25;;;;;;;4.03;2.00;;;;;;;;;;5092662;28;20450;-70
2022/01/28 15:52:53;;;;;;;10.47;3.30;;;;;;;;;;5092784;28;20492;-70
2022/01/28 15:55:20;;;;;;;2.93;2.53;;;;;;;;;;5092582;28;20458;-70
2022/01/28 15:57:47;;;;;;;14.00;3.23;;;;;;;;;;5092348;28;20817;-70